Terminal Aerodrome Forecast
Issued by NWS Sterling, VA

Current Version | Previous Version | Graphics & Text | Print | Product List | Glossary On
Versions: 1 2 3 4 5 6 7 8 9 10 11 12 13 14 15 16 17 18 19 20 21 22 23 24
257
FTUS41 KLWX 241732
TAFIAD
TAF
KIAD 241732Z 2418/2524 21014KT P6SM SCT080
     FM250000 20008KT P6SM BKN140
     FM250700 21004KT P6SM BKN120=

USA.gov is the U.S. government's official web portal to all federal, state and local government web resources and services.